Estación Meteorológica Peña el Pijo (Robertgarden) [ 12/10/18 12:38:15 CET ]

Fecha Hora Presion(HPa) Temp (°C) Humedad % Rocio (°C) Viento ( m/s) Direccion Lluvia 1Hora(mm) Lluvia 24H(mm) LLuvia Total(mm)
2018-Aug-02 01:02:07 1014.000 17.7 48 6.5         269.36
2018-Aug-02 02:01:53 1014.100 15.7 54 6.4         269.36
2018-Aug-02 03:01:25 1013.800 14.6 57 6.2         269.36
2018-Aug-02 04:01:31 1013.800 13.5 60 5.9         269.36
2018-Aug-02 05:01:29 1013.500 12.9 62 5.8         269.36
2018-Aug-02 06:01:25 1013.700 12.3 64 5.7         269.36
2018-Aug-02 07:02:01 1013.800 11.8 65 5.4         269.36
2018-Aug-02 08:02:05 1014.100 12.6 66 6.4         269.36
2018-Aug-02 09:01:58 1013.900 20.2 51 9.8         269.36
2018-Aug-02 10:01:56 1013.900 26.8 39 11.7         269.36
2018-Aug-02 11:01:56 1013.800 32.6 29 12.2         269.36
2018-Aug-02 12:01:42 1013.800 33.5 24 9.9         269.36
2018-Aug-02 13:01:56 1013.500 36.4 21 10.5 0.4 SSW     269.36
2018-Aug-02 14:01:53 1013.500 36.2 20 9.8 2.4 S     269.36
2018-Aug-02 15:01:53 1013.200 35.8 21 10.0 2.2 S     269.36
2018-Aug-02 16:01:54 1013.000 36.4 20 9.9         269.36
2018-Aug-02 17:02:00 1012.700 37.2 19 9.6         269.36
2018-Aug-02 18:01:42 1012.700 36.3 20 9.8         269.36
2018-Aug-02 19:01:54 1012.900 34.4 22 9.4 1.8 SSW     269.36
2018-Aug-02 20:01:58 1013.200 31.6 25 9.0         269.36
2018-Aug-02 21:01:43 1013.700 28.6 28 8.2         269.36
2018-Aug-02 22:01:48 1013.900 24.9 36 8.7         269.36
2018-Aug-02 23:01:50 1014.600 21.9 46 9.7         269.36

Temperatura Máxima:37°    Temperatura Mínima:11°
Presión Máxima:1014.600 Hpa    Presión Mínima:1012.700 Hpa


Volver